sensor_id;sensor_type;location;lat;lon;timestamp;pressure;altitude;pressure_sealevel;temperature;humidity
73341;BME280;61578;52.002;5.468;2023-03-30T00:00:30;100524.50;;;12.53;79.52
73341;BME280;61578;52.002;5.468;2023-03-30T00:01:03;100527.06;;;12.66;79.25
73341;BME280;61578;52.002;5.468;2023-03-30T00:01:39;100523.81;;;12.74;78.70
73341;BME280;61578;52.002;5.468;2023-03-30T00:02:09;100520.69;;;12.80;78.37
73341;BME280;61578;52.002;5.468;2023-03-30T00:02:42;100531.94;;;12.83;78.23
73341;BME280;61578;52.002;5.468;2023-03-30T00:03:14;100512.31;;;12.73;78.24
73341;BME280;61578;52.002;5.468;2023-03-30T00:03:48;100527.72;;;12.81;78.26
73341;BME280;61578;52.002;5.468;2023-03-30T00:04:19;100518.88;;;12.80;78.44
73341;BME280;61578;52.002;5.468;2023-03-30T00:04:51;100521.75;;;12.77;78.66
73341;BME280;61578;52.002;5.468;2023-03-30T00:05:22;100519.09;;;12.77;78.67
73341;BME280;61578;52.002;5.468;2023-03-30T00:05:55;100519.09;;;12.77;78.63
73341;BME280;61578;52.002;5.468;2023-03-30T00:06:26;100521.88;;;12.76;78.58
73341;BME280;61578;52.002;5.468;2023-03-30T00:06:56;100518.25;;;12.77;78.85
73341;BME280;61578;52.002;5.468;2023-03-30T00:07:30;100519.72;;;12.81;78.33
73341;BME280;61578;52.002;5.468;2023-03-30T00:08:01;100519.00;;;12.90;77.93
73341;BME280;61578;52.002;5.468;2023-03-30T00:08:32;100516.91;;;12.94;77.67
73341;BME280;61578;52.002;5.468;2023-03-30T00:09:02;100525.75;;;12.94;77.85
73341;BME280;61578;52.002;5.468;2023-03-30T00:09:35;100522.97;;;12.96;77.63
73341;BME280;61578;52.002;5.468;2023-03-30T00:10:14;100518.13;;;13.01;77.51
73341;BME280;61578;52.002;5.468;2023-03-30T00:10:49;100506.38;;;13.03;77.32
73341;BME280;61578;52.002;5.468;2023-03-30T00:11:22;100511.84;;;13.02;77.11
73341;BME280;61578;52.002;5.468;2023-03-30T00:11:54;100514.34;;;13.03;77.19
73341;BME280;61578;52.002;5.468;2023-03-30T00:12:24;100494.88;;;13.03;77.38
73341;BME280;61578;52.002;5.468;2023-03-30T00:12:56;100495.84;;;13.02;77.14
73341;BME280;61578;52.002;5.468;2023-03-30T00:13:28;100492.34;;;13.01;77.14
73341;BME280;61578;52.002;5.468;2023-03-30T00:14:00;100492.47;;;13.00;77.26
73341;BME280;61578;52.002;5.468;2023-03-30T00:14:30;100486.28;;;12.99;77.46
73341;BME280;61578;52.002;5.468;2023-03-30T00:15:01;100492.47;;;13.00;77.15
73341;BME280;61578;52.002;5.468;2023-03-30T00:15:33;100487.97;;;13.00;77.06
73341;BME280;61578;52.002;5.468;2023-03-30T00:16:06;100472.09;;;12.99;77.23
73341;BME280;61578;52.002;5.468;2023-03-30T00:16:39;100478.03;;;13.02;77.38
73341;BME280;61578;52.002;5.468;2023-03-30T00:17:10;100480.44;;;13.05;76.99
73341;BME280;61578;52.002;5.468;2023-03-30T00:17:41;100475.38;;;13.02;77.02
73341;BME280;61578;52.002;5.468;2023-03-30T00:18:12;100476.34;;;13.01;77.07
73341;BME280;61578;52.002;5.468;2023-03-30T00:18:44;100476.47;;;13.00;77.49
73341;BME280;61578;52.002;5.468;2023-03-30T00:19:14;100479.88;;;13.02;77.51
73341;BME280;61578;52.002;5.468;2023-03-30T00:19:45;100483.50;;;13.01;77.31
73341;BME280;61578;52.002;5.468;2023-03-30T00:20:16;100479.97;;;13.00;77.39
73341;BME280;61578;52.002;5.468;2023-03-30T00:20:48;100483.50;;;13.01;77.45
73341;BME280;61578;52.002;5.468;2023-03-30T00:21:19;100487.84;;;13.02;77.48
73341;BME280;61578;52.002;5.468;2023-03-30T00:21:50;100485.19;;;13.02;77.37
73341;BME280;61578;52.002;5.468;2023-03-30T00:22:21;100479.72;;;13.03;76.99
73341;BME280;61578;52.002;5.468;2023-03-30T00:22:51;100481.56;;;13.03;77.28
73341;BME280;61578;52.002;5.468;2023-03-30T00:23:22;100488.81;;;13.01;77.19
73341;BME280;61578;52.002;5.468;2023-03-30T00:23:53;100481.78;;;13.00;77.77
73341;BME280;61578;52.002;5.468;2023-03-30T00:24:24;100482.03;;;12.97;77.66
73341;BME280;61578;52.002;5.468;2023-03-30T00:24:54;100484.69;;;12.97;77.78
73341;BME280;61578;52.002;5.468;2023-03-30T00:25:25;100484.81;;;12.95;77.43
73341;BME280;61578;52.002;5.468;2023-03-30T00:25:57;100490.88;;;12.97;77.17
73341;BME280;61578;52.002;5.468;2023-03-30T00:26:27;100485.53;;;12.97;76.92
73341;BME280;61578;52.002;5.468;2023-03-30T00:26:58;100482.66;;;13.00;77.36
73341;BME280;61578;52.002;5.468;2023-03-30T00:27:29;100484.47;;;13.00;77.20
73341;BME280;61578;52.002;5.468;2023-03-30T00:27:59;100487.84;;;13.02;76.96
73341;BME280;61578;52.002;5.468;2023-03-30T00:28:30;100480.09;;;12.99;77.13
73341;BME280;61578;52.002;5.468;2023-03-30T00:29:01;100474.78;;;12.99;76.78
73341;BME280;61578;52.002;5.468;2023-03-30T00:29:32;100496.94;;;13.10;76.45
73341;BME280;61578;52.002;5.468;2023-03-30T00:30:09;100490.53;;;13.13;76.57
73341;BME280;61578;52.002;5.468;2023-03-30T00:30:42;100486.53;;;13.18;75.89
73341;BME280;61578;52.002;5.468;2023-03-30T00:31:13;100492.31;;;13.23;76.03
73341;BME280;61578;52.002;5.468;2023-03-30T00:31:44;100491.63;;;13.21;75.65
73341;BME280;61578;52.002;5.468;2023-03-30T00:32:14;100491.63;;;13.21;76.18
73341;BME280;61578;52.002;5.468;2023-03-30T00:32:45;100489.81;;;13.22;75.40
73341;BME280;61578;52.002;5.468;2023-03-30T00:33:16;100508.19;;;13.25;75.51
73341;BME280;61578;52.002;5.468;2023-03-30T00:33:47;100493.16;;;13.24;75.70
73341;BME280;61578;52.002;5.468;2023-03-30T00:34:18;100495.13;;;13.22;75.89
73341;BME280;61578;52.002;5.468;2023-03-30T00:34:49;100497.53;;;13.25;75.57
73341;BME280;61578;52.002;5.468;2023-03-30T00:35:20;100490.38;;;13.25;75.29
73341;BME280;61578;52.002;5.468;2023-03-30T00:35:55;100495.47;;;13.29;75.45
73341;BME280;61578;52.002;5.468;2023-03-30T00:36:27;100507.13;;;13.27;75.24
73341;BME280;61578;52.002;5.468;2023-03-30T00:36:57;100500.81;;;13.29;75.17
73341;BME280;61578;52.002;5.468;2023-03-30T00:37:28;100500.69;;;13.30;75.09
73341;BME280;61578;52.002;5.468;2023-03-30T00:37:59;100506.88;;;13.31;75.03
73341;BME280;61578;52.002;5.468;2023-03-30T00:38:33;100500.19;;;13.36;74.69
73341;BME280;61578;52.002;5.468;2023-03-30T00:39:04;100501.75;;;13.39;74.53
73341;BME280;61578;52.002;5.468;2023-03-30T00:39:36;100500.56;;;13.43;74.14
73341;BME280;61578;52.002;5.468;2023-03-30T00:40:08;100504.41;;;13.50;73.77
73341;BME280;61578;52.002;5.468;2023-03-30T00:40:54;100500.25;;;13.57;73.18
73341;BME280;61578;52.002;5.468;2023-03-30T00:41:27;100496.09;;;13.64;73.14
73341;BME280;61578;52.002;5.468;2023-03-30T00:41:58;100498.53;;;13.67;72.86
73341;BME280;61578;52.002;5.468;2023-03-30T00:42:28;100489.56;;;13.68;72.96
73341;BME280;61578;52.002;5.468;2023-03-30T00:43:04;100494.66;;;13.71;72.50
73341;BME280;61578;52.002;5.468;2023-03-30T00:44:05;100481.63;;;13.78;72.54
73341;BME280;61578;52.002;5.468;2023-03-30T00:45:46;100490.56;;;13.88;71.52
73341;BME280;61578;52.002;5.468;2023-03-30T00:46:16;100477.47;;;13.85;70.92
73341;BME280;61578;52.002;5.468;2023-03-30T00:46:47;100488.50;;;13.91;70.72
73341;BME280;61578;52.002;5.468;2023-03-30T00:47:18;100484.94;;;14.02;69.88
73341;BME280;61578;52.002;5.468;2023-03-30T00:48:36;100478.56;;;14.14;69.16
73341;BME280;61578;52.002;5.468;2023-03-30T00:49:10;100478.16;;;14.19;69.41
73341;BME280;61578;52.002;5.468;2023-03-30T00:49:42;100485.91;;;14.22;69.34
73341;BME280;61578;52.002;5.468;2023-03-30T00:50:15;100478.16;;;14.19;68.91
73341;BME280;61578;52.002;5.468;2023-03-30T00:51:06;100470.41;;;14.16;68.86
73341;BME280;61578;52.002;5.468;2023-03-30T00:51:41;100472.94;;;14.17;69.04
73341;BME280;61578;52.002;5.468;2023-03-30T00:52:12;100471.13;;;14.18;68.73
73341;BME280;61578;52.002;5.468;2023-03-30T00:52:51;100473.06;;;14.16;69.20
73341;BME280;61578;52.002;5.468;2023-03-30T00:53:34;100476.16;;;14.11;69.50
73341;BME280;61578;52.002;5.468;2023-03-30T00:54:14;100471.19;;;14.07;69.47
73341;BME280;61578;52.002;5.468;2023-03-30T00:55:08;100468.50;;;14.07;69.20
73341;BME280;61578;52.002;5.468;2023-03-30T00:55:43;100466.56;;;14.09;68.99
73341;BME280;61578;52.002;5.468;2023-03-30T00:56:20;100464.75;;;14.09;68.95
73341;BME280;61578;52.002;5.468;2023-03-30T00:56:56;100477.56;;;14.15;68.34
73341;BME280;61578;52.002;5.468;2023-03-30T00:57:27;100461.81;;;14.12;68.28
73341;BME280;61578;52.002;5.468;2023-03-30T00:57:58;100467.47;;;14.19;68.03
73341;BME280;61578;52.002;5.468;2023-03-30T00:58:30;100457.78;;;14.18;68.21
73341;BME280;61578;52.002;5.468;2023-03-30T00:59:01;100462.75;;;14.22;68.16
73341;BME280;61578;52.002;5.468;2023-03-30T00:59:33;100454.97;;;14.19;68.36
73341;BME280;61578;52.002;5.468;2023-03-30T01:00:07;100443.25;;;14.11;67.79
73341;BME280;61578;52.002;5.468;2023-03-30T01:01:03;100457.91;;;14.16;68.04
73341;BME280;61578;52.002;5.468;2023-03-30T01:01:57;100450.31;;;14.12;68.14
73341;BME280;61578;52.002;5.468;2023-03-30T01:02:54;100450.88;;;14.15;68.27
73341;BME280;61578;52.002;5.468;2023-03-30T01:03:49;100440.47;;;14.12;68.25
73341;BME280;61578;52.002;5.468;2023-03-30T01:04:42;100440.72;;;14.09;68.27
73341;BME280;61578;52.002;5.468;2023-03-30T01:05:36;100446.19;;;14.08;68.74
73341;BME280;61578;52.002;5.468;2023-03-30T01:06:33;100428.03;;;14.02;68.68
73341;BME280;61578;52.002;5.468;2023-03-30T01:07:29;100433.50;;;14.00;68.93
73341;BME280;61578;52.002;5.468;2023-03-30T01:08:24;100417.53;;;13.89;68.93
73341;BME280;61578;52.002;5.468;2023-03-30T01:09:22;100419.59;;;13.85;69.28
73341;BME280;61578;52.002;5.468;2023-03-30T01:10:15;100422.44;;;13.84;69.56
73341;BME280;61578;52.002;5.468;2023-03-30T01:10:49;100423.84;;;13.88;69.05
73341;BME280;61578;52.002;5.468;2023-03-30T01:11:21;100426.16;;;13.92;69.08
73341;BME280;61578;52.002;5.468;2023-03-30T01:11:53;100421.19;;;13.88;69.42
73341;BME280;61578;52.002;5.468;2023-03-30T01:12:24;100419.78;;;13.84;69.38
73341;BME280;61578;52.002;5.468;2023-03-30T01:12:55;100428.94;;;13.91;69.06
73341;BME280;61578;52.002;5.468;2023-03-30T01:13:30;100429.91;;;13.90;69.12
73341;BME280;61578;52.002;5.468;2023-03-30T01:14:07;100436.22;;;13.89;69.35
73341;BME280;61578;52.002;5.468;2023-03-30T01:14:40;100426.94;;;13.83;69.57
73341;BME280;61578;52.002;5.468;2023-03-30T01:15:11;100437.59;;;13.83;69.53
73341;BME280;61578;52.002;5.468;2023-03-30T01:16:16;100445.59;;;13.83;69.34
73341;BME280;61578;52.002;5.468;2023-03-30T01:18:15;100443.63;;;13.85;69.23
73341;BME280;61578;52.002;5.468;2023-03-30T01:19:31;100431.41;;;13.83;69.45
73341;BME280;61578;52.002;5.468;2023-03-30T01:22:14;100429.97;;;13.79;69.60
73341;BME280;61578;52.002;5.468;2023-03-30T01:23:34;100434.13;;;13.72;69.76
73341;BME280;61578;52.002;5.468;2023-03-30T01:26:11;100435.53;;;13.76;69.94
73341;BME280;61578;52.002;5.468;2023-03-30T01:27:49;100433.53;;;13.68;70.17
73341;BME280;61578;52.002;5.468;2023-03-30T01:32:17;100442.50;;;13.67;70.07
73341;BME280;61578;52.002;5.468;2023-03-30T01:33:19;100439.75;;;13.57;70.53
73341;BME280;61578;52.002;5.468;2023-03-30T01:34:12;100424.41;;;13.50;70.57
73341;BME280;61578;52.002;5.468;2023-03-30T01:38:37;100436.63;;;13.52;71.13
73341;BME280;61578;52.002;5.468;2023-03-30T01:39:52;100446.59;;;13.50;70.98
73341;BME280;61578;52.002;5.468;2023-03-30T01:40:51;100441.13;;;13.52;70.94
73341;BME280;61578;52.002;5.468;2023-03-30T01:42:39;100440.84;;;13.55;70.67
73341;BME280;61578;52.002;5.468;2023-03-30T01:43:36;100447.25;;;13.63;70.27
73341;BME280;61578;52.002;5.468;2023-03-30T01:44:30;100444.69;;;13.73;69.95
73341;BME280;61578;52.002;5.468;2023-03-30T01:45:29;100449.38;;;13.81;69.45
73341;BME280;61578;52.002;5.468;2023-03-30T01:47:16;100442.28;;;13.91;69.08
73341;BME280;61578;52.002;5.468;2023-03-30T01:48:07;100441.03;;;13.95;69.42
73341;BME280;61578;52.002;5.468;2023-03-30T01:48:57;100442.84;;;13.94;68.90
73341;BME280;61578;52.002;5.468;2023-03-30T01:49:57;100436.03;;;14.02;68.99
73341;BME280;61578;52.002;5.468;2023-03-30T01:50:40;100430.41;;;14.05;68.85
73341;BME280;61578;52.002;5.468;2023-03-30T01:51:19;100427.06;;;14.03;69.12
73341;BME280;61578;52.002;5.468;2023-03-30T01:52:09;100424.09;;;14.06;68.58
73341;BME280;61578;52.002;5.468;2023-03-30T01:53:11;100418.38;;;14.10;68.46
73341;BME280;61578;52.002;5.468;2023-03-30T01:53:54;100401.41;;;14.11;68.14
73341;BME280;61578;52.002;5.468;2023-03-30T01:54:43;100403.66;;;14.16;68.26
73341;BME280;61578;52.002;5.468;2023-03-30T01:56:02;100401.41;;;14.11;68.37
73341;BME280;61578;52.002;5.468;2023-03-30T01:56:46;100392.78;;;14.08;68.68
73341;BME280;61578;52.002;5.468;2023-03-30T01:57:29;100394.63;;;14.07;68.78
73341;BME280;61578;52.002;5.468;2023-03-30T02:00:04;100391.09;;;14.07;68.71
73341;BME280;61578;52.002;5.468;2023-03-30T02:00:46;100391.94;;;14.07;68.85
73341;BME280;61578;52.002;5.468;2023-03-30T02:01:20;100379.38;;;13.98;68.89
73341;BME280;61578;52.002;5.468;2023-03-30T02:01:58;100389.28;;;14.07;68.55
73341;BME280;61578;52.002;5.468;2023-03-30T02:02:33;100384.06;;;14.06;69.06
73341;BME280;61578;52.002;5.468;2023-03-30T02:03:06;100381.09;;;13.99;68.81
73341;BME280;61578;52.002;5.468;2023-03-30T02:03:47;100374.91;;;13.98;68.57
73341;BME280;61578;52.002;5.468;2023-03-30T02:04:23;100388.31;;;14.08;68.54
73341;BME280;61578;52.002;5.468;2023-03-30T02:04:56;100378.34;;;14.10;68.33
73341;BME280;61578;52.002;5.468;2023-03-30T02:05:55;100386.94;;;14.14;67.68
73341;BME280;61578;52.002;5.468;2023-03-30T02:06:59;100378.94;;;14.14;68.13
73341;BME280;61578;52.002;5.468;2023-03-30T02:08:02;100384.41;;;14.12;68.05
73341;BME280;61578;52.002;5.468;2023-03-30T02:08:40;100379.91;;;14.13;67.90
73341;BME280;61578;52.002;5.468;2023-03-30T02:09:18;100382.16;;;14.17;67.73
73341;BME280;61578;52.002;5.468;2023-03-30T02:09:56;100383.72;;;14.20;68.10
73341;BME280;61578;52.002;5.468;2023-03-30T02:10:34;100382.03;;;14.19;67.70
73341;BME280;61578;52.002;5.468;2023-03-30T02:11:07;100387.25;;;14.20;67.59
73341;BME280;61578;52.002;5.468;2023-03-30T02:11:45;100383.72;;;14.20;67.62
73341;BME280;61578;52.002;5.468;2023-03-30T02:12:22;100396.97;;;14.21;67.40
73341;BME280;61578;52.002;5.468;2023-03-30T02:12:58;100394.53;;;14.18;67.28
73341;BME280;61578;52.002;5.468;2023-03-30T02:13:31;100389.66;;;14.23;67.25
73341;BME280;61578;52.002;5.468;2023-03-30T02:14:05;100395.69;;;14.25;67.20
73341;BME280;61578;52.002;5.468;2023-03-30T02:14:40;100391.38;;;14.24;66.71
73341;BME280;61578;52.002;5.468;2023-03-30T02:15:15;100399.13;;;14.37;66.47
73341;BME280;61578;52.002;5.468;2023-03-30T02:15:52;100400.34;;;14.44;65.96
73341;BME280;61578;52.002;5.468;2023-03-30T02:16:33;100398.09;;;14.49;65.96
73341;BME280;61578;52.002;5.468;2023-03-30T02:17:16;100396.88;;;14.53;65.84
73341;BME280;61578;52.002;5.468;2023-03-30T02:17:52;100395.88;;;14.54;65.91
73341;BME280;61578;52.002;5.468;2023-03-30T02:18:22;100392.63;;;14.51;66.25
73341;BME280;61578;52.002;5.468;2023-03-30T02:18:54;100390.22;;;14.48;65.90
73341;BME280;61578;52.002;5.468;2023-03-30T02:19:26;100391.91;;;14.49;65.71
73341;BME280;61578;52.002;5.468;2023-03-30T02:19:58;100393.47;;;14.51;65.79
73341;BME280;61578;52.002;5.468;2023-03-30T02:20:29;100389.13;;;14.50;65.42
73341;BME280;61578;52.002;5.468;2023-03-30T02:21:02;100382.66;;;14.53;65.67
73341;BME280;61578;52.002;5.468;2023-03-30T02:21:34;100388.97;;;14.52;65.67
73341;BME280;61578;52.002;5.468;2023-03-30T02:22:05;100379.41;;;14.49;65.38
73341;BME280;61578;52.002;5.468;2023-03-30T02:22:35;100392.25;;;14.55;65.34
73341;BME280;61578;52.002;5.468;2023-03-30T02:23:06;100388.56;;;14.56;65.54
73341;BME280;61578;52.002;5.468;2023-03-30T02:23:41;100385.03;;;14.56;65.41
73341;BME280;61578;52.002;5.468;2023-03-30T02:24:23;100391.66;;;14.52;65.66
73341;BME280;61578;52.002;5.468;2023-03-30T02:24:57;100401.22;;;14.54;65.22
73341;BME280;61578;52.002;5.468;2023-03-30T02:25:28;100396.16;;;14.51;65.56
73341;BME280;61578;52.002;5.468;2023-03-30T02:25:59;100412.03;;;14.53;65.68
73341;BME280;61578;52.002;5.468;2023-03-30T02:26:31;100420.19;;;14.51;65.58
73341;BME280;61578;52.002;5.468;2023-03-30T02:27:03;100405.81;;;14.43;65.57
73341;BME280;61578;52.002;5.468;2023-03-30T02:27:34;100415.94;;;14.49;65.57
73341;BME280;61578;52.002;5.468;2023-03-30T02:28:07;100405.94;;;14.41;65.71
73341;BME280;61578;52.002;5.468;2023-03-30T02:28:38;100414.53;;;14.45;65.47
73341;BME280;61578;52.002;5.468;2023-03-30T02:29:11;100414.38;;;14.46;65.55
73341;BME280;61578;52.002;5.468;2023-03-30T02:29:44;100412.31;;;14.50;65.67
73341;BME280;61578;52.002;5.468;2023-03-30T02:30:15;100412.44;;;14.48;65.58
73341;BME280;61578;52.002;5.468;2023-03-30T02:30:46;100408.91;;;14.48;65.90
73341;BME280;61578;52.002;5.468;2023-03-30T02:31:17;100419.72;;;14.46;65.78
73341;BME280;61578;52.002;5.468;2023-03-30T02:31:52;100417.91;;;14.47;65.78
73341;BME280;61578;52.002;5.468;2023-03-30T02:32:31;100402.03;;;14.45;65.83
73341;BME280;61578;52.002;5.468;2023-03-30T02:35:09;100427.78;;;14.56;65.40
73341;BME280;61578;52.002;5.468;2023-03-30T02:36:09;100417.25;;;14.54;65.76
73341;BME280;61578;52.002;5.468;2023-03-30T02:37:09;100409.03;;;14.46;65.89
73341;BME280;61578;52.002;5.468;2023-03-30T02:42:17;100416.53;;;14.52;66.17
73341;BME280;61578;52.002;5.468;2023-03-30T02:43:07;100426.97;;;14.55;66.34
73341;BME280;61578;52.002;5.468;2023-03-30T02:47:01;100426.16;;;14.64;66.16
73341;BME280;61578;52.002;5.468;2023-03-30T02:49:14;100424.47;;;14.63;66.09
73341;BME280;61578;52.002;5.468;2023-03-30T02:50:16;100423.63;;;14.63;66.20
73341;BME280;61578;52.002;5.468;2023-03-30T02:51:13;100426.72;;;14.68;65.83
73341;BME280;61578;52.002;5.468;2023-03-30T02:54:25;100429.25;;;14.69;66.17
73341;BME280;61578;52.002;5.468;2023-03-30T02:55:49;100428.41;;;14.69;66.10
73341;BME280;61578;52.002;5.468;2023-03-30T02:56:45;100423.06;;;14.69;66.29
73341;BME280;61578;52.002;5.468;2023-03-30T02:58:08;100424.06;;;14.68;66.24
73341;BME280;61578;52.002;5.468;2023-03-30T02:58:54;100421.81;;;14.63;66.51
73341;BME280;61578;52.002;5.468;2023-03-30T02:59:39;100421.63;;;14.55;66.94
73341;BME280;61578;52.002;5.468;2023-03-30T03:00:31;100429.22;;;14.60;67.31
73341;BME280;61578;52.002;5.468;2023-03-30T03:01:20;100425.56;;;14.61;66.35
73341;BME280;61578;52.002;5.468;2023-03-30T03:02:00;100420.09;;;14.62;66.60
73341;BME280;61578;52.002;5.468;2023-03-30T03:02:42;100414.34;;;14.67;66.39
73341;BME280;61578;52.002;5.468;2023-03-30T03:03:33;100409.16;;;14.65;66.17
73341;BME280;61578;52.002;5.468;2023-03-30T03:04:11;100405.66;;;14.75;66.13
73341;BME280;61578;52.002;5.468;2023-03-30T03:04:47;100401.81;;;14.67;66.50
73341;BME280;61578;52.002;5.468;2023-03-30T03:05:24;100412.84;;;14.74;66.51
73341;BME280;61578;52.002;5.468;2023-03-30T03:05:57;100405.09;;;14.71;66.65
73341;BME280;61578;52.002;5.468;2023-03-30T03:06:32;100417.91;;;14.77;66.49
73341;BME280;61578;52.002;5.468;2023-03-30T03:07:03;100415.94;;;14.79;66.48
73341;BME280;61578;52.002;5.468;2023-03-30T03:07:34;100417.63;;;14.80;66.13
73341;BME280;61578;52.002;5.468;2023-03-30T03:08:05;100412.53;;;14.77;66.44
73341;BME280;61578;52.002;5.468;2023-03-30T03:08:38;100418.59;;;14.79;66.47
73341;BME280;61578;52.002;5.468;2023-03-30T03:09:12;100431.97;;;14.79;66.39
73341;BME280;61578;52.002;5.468;2023-03-30T03:09:44;100406.53;;;14.75;66.16
73341;BME280;61578;52.002;5.468;2023-03-30T03:10:15;100419.31;;;14.81;66.45
73341;BME280;61578;52.002;5.468;2023-03-30T03:10:46;100413.00;;;14.82;66.45
73341;BME280;61578;52.002;5.468;2023-03-30T03:11:16;100415.94;;;14.79;66.18
73341;BME280;61578;52.002;5.468;2023-03-30T03:11:47;100412.28;;;14.80;66.55
73341;BME280;61578;52.002;5.468;2023-03-30T03:12:18;100413.25;;;14.79;66.33
73341;BME280;61578;52.002;5.468;2023-03-30T03:12:49;100413.00;;;14.82;66.30
73341;BME280;61578;52.002;5.468;2023-03-30T03:13:20;100404.53;;;14.77;66.06
73341;BME280;61578;52.002;5.468;2023-03-30T03:13:51;100413.59;;;14.86;66.33
73341;BME280;61578;52.002;5.468;2023-03-30T03:14:21;100408.50;;;14.83;66.51
73341;BME280;61578;52.002;5.468;2023-03-30T03:14:55;100405.13;;;14.81;66.91
73341;BME280;61578;52.002;5.468;2023-03-30T03:15:27;100410.34;;;14.82;66.58
73341;BME280;61578;52.002;5.468;2023-03-30T03:15:58;100403.41;;;14.80;66.42
73341;BME280;61578;52.002;5.468;2023-03-30T03:16:30;100409.75;;;14.79;66.83
73341;BME280;61578;52.002;5.468;2023-03-30T03:17:01;100382.84;;;14.70;66.83
73341;BME280;61578;52.002;5.468;2023-03-30T03:17:31;100404.53;;;14.77;66.88
73341;BME280;61578;52.002;5.468;2023-03-30T03:18:03;100405.50;;;14.76;67.05
73341;BME280;61578;52.002;5.468;2023-03-30T03:18:36;100399.75;;;14.71;66.99
73341;BME280;61578;52.002;5.468;2023-03-30T03:19:10;100402.97;;;14.65;67.39
73341;BME280;61578;52.002;5.468;2023-03-30T03:19:41;100401.97;;;14.66;67.51
73341;BME280;61578;52.002;5.468;2023-03-30T03:20:12;100398.47;;;14.65;67.35
73341;BME280;61578;52.002;5.468;2023-03-30T03:20:43;100400.56;;;14.62;67.54
73341;BME280;61578;52.002;5.468;2023-03-30T03:21:14;100384.34;;;14.54;67.60
73341;BME280;61578;52.002;5.468;2023-03-30T03:21:45;100390.97;;;14.59;67.57
73341;BME280;61578;52.002;5.468;2023-03-30T03:22:16;100381.13;;;14.60;67.54
73341;BME280;61578;52.002;5.468;2023-03-30T03:22:46;100368.31;;;14.54;67.94
73341;BME280;61578;52.002;5.468;2023-03-30T03:23:17;100379.19;;;14.62;67.96
73341;BME280;61578;52.002;5.468;2023-03-30T03:23:48;100381.13;;;14.60;68.18
73341;BME280;61578;52.002;5.468;2023-03-30T03:24:18;100369.59;;;14.59;67.71
73341;BME280;61578;52.002;5.468;2023-03-30T03:24:49;100376.06;;;14.57;68.30
73341;BME280;61578;52.002;5.468;2023-03-30T03:25:20;100371.69;;;14.56;68.75
73341;BME280;61578;52.002;5.468;2023-03-30T03:25:50;100370.72;;;14.57;69.01
73341;BME280;61578;52.002;5.468;2023-03-30T03:26:21;100373.25;;;14.58;68.96
73341;BME280;61578;52.002;5.468;2023-03-30T03:26:53;100374.09;;;14.59;69.21
73341;BME280;61578;52.002;5.468;2023-03-30T03:27:23;100368.75;;;14.59;69.46
73341;BME280;61578;52.002;5.468;2023-03-30T03:27:54;100375.53;;;14.63;69.33
73341;BME280;61578;52.002;5.468;2023-03-30T03:28:26;100379.19;;;14.62;69.87
73341;BME280;61578;52.002;5.468;2023-03-30T03:28:57;100381.72;;;14.63;69.87
73341;BME280;61578;52.002;5.468;2023-03-30T03:29:28;100386.22;;;14.63;70.13
73341;BME280;61578;52.002;5.468;2023-03-30T03:29:59;100391.97;;;14.68;70.21
73341;BME280;61578;52.002;5.468;2023-03-30T03:30:29;100391.28;;;14.66;70.20
73341;BME280;61578;52.002;5.468;2023-03-30T03:31:01;100384.25;;;14.65;70.41
73341;BME280;61578;52.002;5.468;2023-03-30T03:31:33;100384.94;;;14.67;70.29
73341;BME280;61578;52.002;5.468;2023-03-30T03:32:04;100389.16;;;14.60;70.17
73341;BME280;61578;52.002;5.468;2023-03-30T03:32:35;100383.81;;;14.60;70.52
73341;BME280;61578;52.002;5.468;2023-03-30T03:33:06;100380.00;;;14.53;70.82
73341;BME280;61578;52.002;5.468;2023-03-30T03:33:37;100394.22;;;14.63;70.94
73341;BME280;61578;52.002;5.468;2023-03-30T03:34:07;100393.50;;;14.61;71.14
73341;BME280;61578;52.002;5.468;2023-03-30T03:34:38;100384.50;;;14.52;71.42
73341;BME280;61578;52.002;5.468;2023-03-30T03:35:15;100394.06;;;14.55;71.86
73341;BME280;61578;52.002;5.468;2023-03-30T03:35:46;100393.22;;;14.54;71.76
73341;BME280;61578;52.002;5.468;2023-03-30T03:36:17;100378.44;;;14.50;71.73
73341;BME280;61578;52.002;5.468;2023-03-30T03:36:48;100389.56;;;14.55;71.96
73341;BME280;61578;52.002;5.468;2023-03-30T03:37:21;100397.41;;;14.57;72.39
73341;BME280;61578;52.002;5.468;2023-03-30T03:37:52;100394.75;;;14.57;72.38
73341;BME280;61578;52.002;5.468;2023-03-30T03:38:23;100396.56;;;14.56;72.21
73341;BME280;61578;52.002;5.468;2023-03-30T03:38:53;100394.63;;;14.58;72.74
73341;BME280;61578;52.002;5.468;2023-03-30T03:39:24;100392.94;;;14.57;72.53
73341;BME280;61578;52.002;5.468;2023-03-30T03:39:55;100393.78;;;14.58;72.46
73341;BME280;61578;52.002;5.468;2023-03-30T03:40:25;100388.31;;;14.59;72.41
73341;BME280;61578;52.002;5.468;2023-03-30T03:40:57;100389.16;;;14.60;72.59
73341;BME280;61578;52.002;5.468;2023-03-30T03:41:28;100379.91;;;14.64;72.51
73341;BME280;61578;52.002;5.468;2023-03-30T03:41:59;100380.88;;;14.63;72.39
73341;BME280;61578;52.002;5.468;2023-03-30T03:42:30;100379.75;;;14.65;72.57
73341;BME280;61578;52.002;5.468;2023-03-30T03:43:00;100371.59;;;14.67;72.54
73341;BME280;61578;52.002;5.468;2023-03-30T03:43:31;100374.56;;;14.64;72.62
73341;BME280;61578;52.002;5.468;2023-03-30T03:44:02;100375.78;;;14.60;72.74
73341;BME280;61578;52.002;5.468;2023-03-30T03:44:32;100367.63;;;14.52;72.89
73341;BME280;61578;52.002;5.468;2023-03-30T03:45:04;100379.00;;;14.54;72.82
73341;BME280;61578;52.002;5.468;2023-03-30T03:45:35;100372.94;;;14.52;73.08
73341;BME280;61578;52.002;5.468;2023-03-30T03:46:05;100363.38;;;14.49;72.70
73341;BME280;61578;52.002;5.468;2023-03-30T03:46:36;100373.75;;;14.43;73.02
73341;BME280;61578;52.002;5.468;2023-03-30T03:47:07;100371.34;;;14.40;73.45